Guymon Municipal Airport
KGUY : now visible

Airfield :











YOU CAN JOIN US ON...

 
LOGIN :

Register | Disclaimer

   EN    FR    IT 

 









Legend :    VFR   Marginal VFR   IFR   Intensive IFR   Very Intensive IFR
Visi :
Ceiling :
>= 8 km
>= 3000ft
5 to 8 km
1000 to 3000 ft
1500m to 5 km
500 to 1000 ft
800 to 1500m
200 to 500 ft
< 800m
< 200 ft
Symbols :   Thunderstorms  Fog  Heavy snow  Heavy precipitations  Wind > 20 kt







- Airport Elevation : 3123 ft


KGUY - Guymon Municipal

CURRENT METAR :
  • 191353Z AUTO 20016G22KT 10SM CLR 28/16 A2985 RMK AO2 SLP048 T02830156

EXPIRED METARs :
  • 191253Z AUTO 19013KT 10SM CLR 26/16 A2984 RMK AO2 SLP045 T02610161
  • 191153Z AUTO 19010KT 10SM CLR 23/16 A2984 RMK AO2 SLP045 T02330156 10272 20233 53007

TAF KGUY
Valid from the 19 at 12:00 until the 20 at 12:00 UTC


191120Z 1912/2012 19009KT P6SM FEW250 WS015/23045KT
FM191500 21015KT P6SM SKC
FM192100 18016KT P6SM SKC
FM201000 21012KT P6SM FEW250 WS020/23045KT
KZKC FIR / North America



MET'MAP, your aeronautical weather chart ! - Copyright ORBIFLY December 2007 - Disclaimer

ORBIFLY MET'MAP TEAM :

Programming & Development : Alexandra Zaïnal
Concept & Development : Baudouin d'Aumeries
Co-Development & Prog : Marc-Olivier Méhu
Technical & hardware support : Manuel Goepfert

Contact : metmap@orbifly.com




SOURCES & CREDITS :

   NOAA       Earth
Advisory